Time;durP1;ratioP1;P1;durP2;ratioP2;P2;SDS_P1;SDS_P2;PMS_P1;PMS_P2;Temp;Humidity;BMP_temperature;BMP_pressure;BME280_temperature;BME280_humidity;BME280_pressure;Samples;Min_cycle;Max_cycle;Signal;HPM_P1;HPM_P2
2022/04/20 00:00:22;;;;;;;4.18;3.08;;;;;;;;;;4995248;28;20042;-80
2022/04/20 00:02:47;;;;;;;5.03;3.28;;;;;;;;;;4977750;28;20053;-81
2022/04/20 00:05:12;;;;;;;4.80;3.00;;;;;;;;;;4994554;28;20023;-81
2022/04/20 00:07:38;;;;;;;4.50;3.03;;;;;;;;;;4995154;28;20038;-81
2022/04/20 00:10:03;;;;;;;3.88;2.67;;;;;;;;;;4995174;28;20045;-82
2022/04/20 00:12:28;;;;;;;4.60;3.22;;;;;;;;;;4995356;28;20038;-81
2022/04/20 00:14:53;;;;;;;3.58;2.72;;;;;;;;;;4977145;28;20045;-81
2022/04/20 00:17:20;;;;;;;3.50;2.70;;;;;;;;;;4995430;28;20030;-81
2022/04/20 00:19:45;;;;;;;4.47;2.60;;;;;;;;;;4978285;28;20030;-81
2022/04/20 00:22:10;;;;;;;5.15;2.90;;;;;;;;;;4977762;28;20045;-81
2022/04/20 00:24:36;;;;;;;4.63;2.90;;;;;;;;;;4994291;28;20077;-81
2022/04/20 00:27:01;;;;;;;5.55;2.85;;;;;;;;;;4994544;28;20534;-81
2022/04/20 00:29:26;;;;;;;4.07;2.83;;;;;;;;;;4994441;28;20030;-81
2022/04/20 00:31:51;;;;;;;4.15;2.90;;;;;;;;;;4994960;28;20030;-80
2022/04/20 00:34:17;;;;;;;3.92;2.80;;;;;;;;;;4994160;28;20495;-81
2022/04/20 00:36:42;;;;;;;4.95;2.97;;;;;;;;;;4994857;28;20061;-81
2022/04/20 00:39:07;;;;;;;4.65;2.97;;;;;;;;;;4977329;28;20121;-81
2022/04/20 00:41:33;;;;;;;5.32;3.55;;;;;;;;;;4994755;28;20053;-80
2022/04/20 00:43:58;;;;;;;4.35;3.25;;;;;;;;;;4976673;28;20038;-80
2022/04/20 00:46:23;;;;;;;4.38;3.28;;;;;;;;;;4995011;28;20070;-80
2022/04/20 00:48:49;;;;;;;4.28;2.97;;;;;;;;;;4994797;28;20589;-81
2022/04/20 00:51:17;;;;;;;4.97;2.88;;;;;;;;;;4961307;28;20036;-80
2022/04/20 00:53:43;;;;;;;5.00;3.35;;;;;;;;;;4994444;28;20069;-80
2022/04/20 00:56:09;;;;;;;4.43;3.17;;;;;;;;;;4976207;28;20088;-80
2022/04/20 00:58:35;;;;;;;5.07;3.17;;;;;;;;;;4976850;28;20026;-80
2022/04/20 01:01:00;;;;;;;5.15;3.38;;;;;;;;;;4976628;28;20030;-80
2022/04/20 01:03:26;;;;;;;4.53;3.15;;;;;;;;;;4976430;28;20084;-79
2022/04/20 01:06:11;;;;;;;4.75;3.03;;;;;;;;;;4993347;28;20165;-80
2022/04/20 01:09:05;;;;;;;4.07;2.80;;;;;;;;;;4960784;28;20043;-80
2022/04/20 01:12:01;;;;;;;5.55;2.95;;;;;;;;;;4975413;28;20031;-80
2022/04/20 01:14:33;;;;;;;4.57;3.13;;;;;;;;;;4975919;28;20136;-80
2022/04/20 01:17:27;;;;;;;5.05;2.75;;;;;;;;;;4941338;28;20048;-80
2022/04/20 01:20:12;;;;;;;;;;;;;;;;;;4979463;28;20446;-79
2022/04/20 01:23:01;;;;;;;4.13;2.80;;;;;;;;;;4985369;28;19914;-80
2022/04/20 01:25:44;;;;;;;;;;;;;;;;;;4993025;28;20060;-79
2022/04/20 01:28:33;;;;;;;4.10;2.83;;;;;;;;;;4992715;28;19926;-79
2022/04/20 01:31:28;;;;;;;3.75;2.60;;;;;;;;;;4959025;28;20403;-79
2022/04/20 01:34:13;;;;;;;3.85;2.85;;;;;;;;;;4981964;28;20046;-80
2022/04/20 01:36:39;;;;;;;4.07;2.40;;;;;;;;;;4975944;28;20399;-79
2022/04/20 01:39:04;;;;;;;3.17;2.30;;;;;;;;;;4993000;28;20038;-80
2022/04/20 01:41:29;;;;;;;4.40;2.90;;;;;;;;;;4975897;28;20030;-79
2022/04/20 01:43:55;;;;;;;3.75;2.63;;;;;;;;;;4975337;28;20030;-79
2022/04/20 01:46:28;;;;;;;4.35;2.90;;;;;;;;;;4961032;28;20061;-79
2022/04/20 01:49:02;;;;;;;6.80;2.83;;;;;;;;;;4993717;28;20042;-80
2022/04/20 01:51:52;;;;;;;4.90;3.28;;;;;;;;;;4978175;28;20491;-80
2022/04/20 01:54:29;;;;;;;4.03;3.03;;;;;;;;;;4977111;28;20077;-79
2022/04/20 01:57:13;;;;;;;3.90;2.83;;;;;;;;;;4993537;28;20045;-79
2022/04/20 01:59:57;;;;;;;3.72;2.65;;;;;;;;;;4993248;28;20050;-80
2022/04/20 02:02:39;;;;;;;4.25;2.90;;;;;;;;;;4993634;28;20034;-79
2022/04/20 02:05:23;;;;;;;3.85;2.80;;;;;;;;;;4975606;28;20030;-79
2022/04/20 02:07:55;;;;;;;4.75;2.90;;;;;;;;;;4976476;28;20690;-79
2022/04/20 02:10:31;;;;;;;3.55;2.50;;;;;;;;;;4976338;28;20039;-79
2022/04/20 02:12:56;;;;;;;4.45;2.60;;;;;;;;;;4976197;28;20069;-79
2022/04/20 02:15:32;;;;;;;3.50;2.55;;;;;;;;;;4975513;28;20447;-79
2022/04/20 02:18:00;;;;;;;3.63;2.75;;;;;;;;;;4993565;28;20034;-79
2022/04/20 02:20:48;;;;;;;3.65;2.40;;;;;;;;;;4992818;28;20042;-79
2022/04/20 02:23:14;;;;;;;3.90;2.78;;;;;;;;;;4962313;28;20380;-79
2022/04/20 02:25:39;;;;;;;3.20;2.40;;;;;;;;;;4996316;28;20026;-79
2022/04/20 02:28:04;;;;;;;3.38;2.67;;;;;;;;;;4979660;28;20061;-79
2022/04/20 02:30:29;;;;;;;3.92;2.78;;;;;;;;;;4979524;28;20065;-79
2022/04/20 02:32:55;;;;;;;3.63;2.72;;;;;;;;;;4979625;28;20042;-79
2022/04/20 02:35:20;;;;;;;3.75;2.92;;;;;;;;;;4979032;28;20181;-79
2022/04/20 02:37:46;;;;;;;4.00;2.70;;;;;;;;;;4979621;28;20038;-79
2022/04/20 02:40:11;;;;;;;4.78;2.60;;;;;;;;;;4996787;28;20481;-79
2022/04/20 02:42:36;;;;;;;4.10;2.78;;;;;;;;;;4979757;28;20038;-79
2022/04/20 02:45:01;;;;;;;4.05;2.80;;;;;;;;;;4996221;28;20030;-79
2022/04/20 02:47:26;;;;;;;3.65;2.65;;;;;;;;;;4996867;28;20045;-80
2022/04/20 02:49:52;;;;;;;2.95;2.22;;;;;;;;;;4979136;28;20034;-79
2022/04/20 02:52:18;;;;;;;3.85;2.70;;;;;;;;;;4962902;28;20104;-79
2022/04/20 02:54:44;;;;;;;4.68;2.55;;;;;;;;;;4978526;28;20498;-79
2022/04/20 02:57:09;;;;;;;3.92;2.75;;;;;;;;;;4963105;28;20038;-79
2022/04/20 02:59:35;;;;;;;3.45;2.55;;;;;;;;;;4996496;28;20034;-79
2022/04/20 03:02:02;;;;;;;3.38;2.53;;;;;;;;;;4979207;28;20054;-79
2022/04/20 03:04:29;;;;;;;5.82;2.75;;;;;;;;;;4979366;28;20502;-79
2022/04/20 03:06:54;;;;;;;3.72;2.60;;;;;;;;;;4963034;28;20046;-79
2022/04/20 03:09:32;;;;;;;3.80;2.35;;;;;;;;;;4978855;28;20406;-79
2022/04/20 03:11:59;;;;;;;3.47;2.60;;;;;;;;;;4996374;28;20041;-81
2022/04/20 03:14:25;;;;;;;3.92;2.58;;;;;;;;;;4978017;28;20043;-81
2022/04/20 03:16:55;;;;;;;3.35;2.55;;;;;;;;;;4979081;28;20061;-80
2022/04/20 03:19:21;;;;;;;3.28;2.35;;;;;;;;;;4978521;28;20034;-80
2022/04/20 03:21:47;;;;;;;3.58;2.58;;;;;;;;;;4995801;28;20438;-80
2022/04/20 03:24:12;;;;;;;4.72;2.60;;;;;;;;;;4977391;28;20134;-80
2022/04/20 03:26:50;;;;;;;5.10;3.17;;;;;;;;;;4963820;28;20034;-80
2022/04/20 03:29:31;;;;;;;3.85;2.45;;;;;;;;;;4978487;28;20046;-80
2022/04/20 03:31:56;;;;;;;3.40;2.17;;;;;;;;;;4962088;28;20394;-80
2022/04/20 03:34:22;;;;;;;4.28;2.45;;;;;;;;;;4960853;28;20376;-80
2022/04/20 03:36:47;;;;;;;4.13;2.55;;;;;;;;;;4977596;28;20045;-80
2022/04/20 03:39:12;;;;;;;3.38;2.25;;;;;;;;;;4978038;28;20029;-80
2022/04/20 03:41:38;;;;;;;4.03;2.60;;;;;;;;;;4977492;28;20042;-80
2022/04/20 03:44:03;;;;;;;4.28;2.58;;;;;;;;;;4977687;28;20072;-80
2022/04/20 03:46:28;;;;;;;3.53;2.65;;;;;;;;;;4995460;28;20138;-80
2022/04/20 03:48:54;;;;;;;4.05;2.55;;;;;;;;;;4978035;28;20049;-80
2022/04/20 03:51:19;;;;;;;3.58;2.65;;;;;;;;;;4977791;28;20026;-80
2022/04/20 03:53:45;;;;;;;3.97;2.45;;;;;;;;;;4977845;28;20034;-79
2022/04/20 03:56:11;;;;;;;3.38;2.70;;;;;;;;;;4976639;28;20057;-80
2022/04/20 03:58:36;;;;;;;3.35;2.40;;;;;;;;;;4994816;28;20084;-79
2022/04/20 04:01:02;;;;;;;3.30;2.47;;;;;;;;;;4977088;28;20112;-80
2022/04/20 04:03:28;;;;;;;3.83;2.40;;;;;;;;;;4961166;28;20057;-80
2022/04/20 04:05:58;;;;;;;2.75;2.17;;;;;;;;;;4976761;28;20042;-80
2022/04/20 04:08:24;;;;;;;4.07;2.47;;;;;;;;;;4961266;28;20034;-80
2022/04/20 04:10:50;;;;;;;5.03;2.50;;;;;;;;;;4961360;28;20109;-80
2022/04/20 04:13:17;;;;;;;4.20;2.50;;;;;;;;;;4977386;28;20122;-80
2022/04/20 04:15:47;;;;;;;3.70;2.70;;;;;;;;;;4976656;28;20066;-81
2022/04/20 04:18:13;;;;;;;3.20;2.40;;;;;;;;;;4977548;28;20027;-80
2022/04/20 04:20:43;;;;;;;4.18;2.53;;;;;;;;;;4962163;28;20026;-81
2022/04/20 04:23:11;;;;;;;3.80;2.60;;;;;;;;;;4977438;28;20030;-80
2022/04/20 04:25:48;;;;;;;6.38;3.28;;;;;;;;;;4976759;28;20034;-81
2022/04/20 04:28:21;;;;;;;3.13;2.45;;;;;;;;;;4962189;28;20511;-80
2022/04/20 04:30:46;;;;;;;4.97;2.70;;;;;;;;;;4977203;28;20042;-80
2022/04/20 04:33:11;;;;;;;5.15;3.40;;;;;;;;;;4960990;28;20034;-80
2022/04/20 04:35:37;;;;;;;6.75;3.80;;;;;;;;;;4959881;28;20037;-80
2022/04/20 04:38:06;;;;;;;6.10;4.03;;;;;;;;;;4977266;28;20038;-80
2022/04/20 04:40:32;;;;;;;5.78;3.13;;;;;;;;;;4977170;28;20383;-81
2022/04/20 04:43:00;;;;;;;5.45;2.70;;;;;;;;;;4976658;28;20034;-80
2022/04/20 04:51:02;;;;;;;3.58;2.50;;;;;;;;;;4976709;28;20066;-80
2022/04/20 04:53:29;;;;;;;4.38;2.72;;;;;;;;;;4960955;28;20159;-80
2022/04/20 04:55:55;;;;;;;5.38;2.92;;;;;;;;;;4976132;28;20722;-81
2022/04/20 04:58:20;;;;;;;4.55;2.90;;;;;;;;;;4976984;28;20093;-81
2022/04/20 05:00:46;;;;;;;5.07;2.75;;;;;;;;;;4960692;28;20038;-80
2022/04/20 05:03:21;;;;;;;6.07;3.83;;;;;;;;;;4976845;28;20121;-81
2022/04/20 05:05:47;;;;;;;7.20;2.85;;;;;;;;;;4976212;28;20497;-81
2022/04/20 05:08:15;;;;;;;4.95;2.58;;;;;;;;;;4977179;28;20038;-81
2022/04/20 05:10:41;;;;;;;3.63;2.50;;;;;;;;;;4960556;28;20524;-81
2022/04/20 05:13:07;;;;;;;5.53;3.10;;;;;;;;;;4976659;28;20119;-81
2022/04/20 05:15:33;;;;;;;6.50;3.85;;;;;;;;;;4976403;28;20062;-81
2022/04/20 05:17:59;;;;;;;5.60;3.25;;;;;;;;;;4976878;28;20030;-81
2022/04/20 05:20:24;;;;;;;7.85;3.33;;;;;;;;;;4976079;28;20084;-81
2022/04/20 05:22:49;;;;;;;5.40;3.70;;;;;;;;;;4993973;28;20038;-81
2022/04/20 05:25:15;;;;;;;5.95;3.83;;;;;;;;;;4975594;28;20077;-80
2022/04/20 05:27:40;;;;;;;5.22;4.00;;;;;;;;;;4976404;28;20030;-80
2022/04/20 05:30:09;;;;;;;6.57;4.35;;;;;;;;;;4976203;28;20035;-80
2022/04/20 05:32:35;;;;;;;8.18;6.18;;;;;;;;;;4976474;28;20456;-81
2022/04/20 05:35:03;;;;;;;11.52;4.80;;;;;;;;;;4975458;28;20463;-81
2022/04/20 05:42:57;;;;;;;6.78;4.97;;;;;;;;;;4976225;28;20108;-80
2022/04/20 05:45:22;;;;;;;6.88;5.20;;;;;;;;;;4959635;28;20507;-80
2022/04/20 05:47:58;;;;;;;9.50;5.75;;;;;;;;;;4976369;28;20034;-81
2022/04/20 05:50:25;;;;;;;10.35;5.50;;;;;;;;;;4975972;28;20111;-80
2022/04/20 05:52:51;;;;;;;8.50;5.45;;;;;;;;;;4993470;28;20030;-80
2022/04/20 05:55:17;;;;;;;7.03;5.20;;;;;;;;;;4975716;28;20072;-82
2022/04/20 05:57:42;;;;;;;7.75;5.30;;;;;;;;;;4962057;28;20030;-82
2022/04/20 06:00:08;;;;;;;8.18;5.45;;;;;;;;;;4960919;28;20044;-82
2022/04/20 06:02:41;;;;;;;6.90;5.17;;;;;;;;;;4978473;28;20578;-81
2022/04/20 06:05:10;;;;;;;6.80;4.95;;;;;;;;;;4975950;28;20093;-81
2022/04/20 06:07:47;;;;;;;7.78;5.32;;;;;;;;;;4960578;28;20098;-81
2022/04/20 06:10:32;;;;;;;6.70;4.88;;;;;;;;;;4978720;28;20039;-82
2022/04/20 06:13:02;;;;;;;7.47;5.05;;;;;;;;;;4961806;28;20461;-81
2022/04/20 06:15:40;;;;;;;7.13;4.93;;;;;;;;;;4964459;28;20034;-81
2022/04/20 06:18:14;;;;;;;6.03;4.50;;;;;;;;;;4979775;28;20097;-81
2022/04/20 06:20:45;;;;;;;7.40;4.50;;;;;;;;;;4977154;28;20065;-82
2022/04/20 06:23:37;;;;;;;7.25;4.47;;;;;;;;;;4961978;28;20058;-81
2022/04/20 06:26:21;;;;;;;4.68;3.95;;;;;;;;;;4963502;28;20041;-82
2022/04/20 06:28:58;;;;;;;5.38;4.03;;;;;;;;;;4963866;28;20110;-82
2022/04/20 06:31:40;;;;;;;5.30;3.95;;;;;;;;;;4962264;28;20031;-81
2022/04/20 06:34:17;;;;;;;6.10;3.50;;;;;;;;;;4960280;28;20073;-80
2022/04/20 06:36:53;;;;;;;5.03;3.90;;;;;;;;;;4961613;28;20030;-80
2022/04/20 06:39:37;;;;;;;4.15;3.60;;;;;;;;;;4976309;28;20530;-80
2022/04/20 06:42:12;;;;;;;4.53;3.38;;;;;;;;;;4959598;28;20034;-80
2022/04/20 06:45:06;;;;;;;5.32;3.67;;;;;;;;;;4971681;28;20043;-80
2022/04/20 06:47:46;;;;;;;4.93;3.70;;;;;;;;;;4959899;28;20665;-80
2022/04/20 06:50:44;;;;;;;5.18;3.78;;;;;;;;;;4959414;28;20454;-79
2022/04/20 06:59:04;;;;;;;5.35;3.50;;;;;;;;;;4959143;28;20058;-79
2022/04/20 07:01:50;;;;;;;4.60;3.60;;;;;;;;;;4972303;28;20053;-80
2022/04/20 07:04:35;;;;;;;5.35;3.70;;;;;;;;;;4958645;28;20050;-81
2022/04/20 07:07:19;;;;;;;4.78;3.72;;;;;;;;;;4976631;28;20042;-81
2022/04/20 07:09:58;;;;;;;4.30;3.50;;;;;;;;;;4958422;28;20373;-81
2022/04/20 07:12:40;;;;;;;6.85;3.78;;;;;;;;;;4958936;28;20035;-81
2022/04/20 07:15:05;;;;;;;4.57;3.50;;;;;;;;;;4958489;28;20074;-81
2022/04/20 07:17:30;;;;;;;5.70;2.97;;;;;;;;;;4961816;28;20538;-81
2022/04/20 07:20:17;;;;;;;4.60;3.03;;;;;;;;;;4965160;28;20070;-81
2022/04/20 07:23:00;;;;;;;4.53;3.20;;;;;;;;;;4963996;28;20102;-81
2022/04/20 07:25:30;;;;;;;5.82;3.40;;;;;;;;;;4964412;28;20023;-81
2022/04/20 07:28:09;;;;;;;3.83;2.90;;;;;;;;;;4965869;28;20039;-82
2022/04/20 07:30:50;;;;;;;3.60;2.80;;;;;;;;;;4978314;28;20031;-81
2022/04/20 07:33:39;;;;;;;3.92;2.90;;;;;;;;;;4977064;28;20047;-82
2022/04/20 07:36:21;;;;;;;4.20;2.85;;;;;;;;;;4958836;28;20105;-82
2022/04/20 07:39:04;;;;;;;4.28;2.35;;;;;;;;;;4976470;28;20480;-80
2022/04/20 07:41:47;;;;;;;3.30;2.55;;;;;;;;;;4962290;28;20053;-81
2022/04/20 07:44:33;;;;;;;5.13;2.88;;;;;;;;;;4958810;28;20594;-82
2022/04/20 07:47:08;;;;;;;4.25;2.67;;;;;;;;;;4958988;28;20518;-81
2022/04/20 07:53:08;;;;;;;3.92;2.70;;;;;;;;;;4968674;28;20038;-81
2022/04/20 07:55:38;;;;;;;3.80;2.50;;;;;;;;;;4975817;28;20495;-81
2022/04/20 07:58:12;;;;;;;4.53;2.85;;;;;;;;;;4959770;28;20031;-81
2022/04/20 08:00:57;;;;;;;5.40;3.20;;;;;;;;;;4974994;28;20408;-82
2022/04/20 08:03:41;;;;;;;6.07;2.72;;;;;;;;;;4976619;28;20054;-82
2022/04/20 08:06:08;;;;;;;6.63;2.80;;;;;;;;;;4974393;28;20026;-81
2022/04/20 08:08:37;;;;;;;4.25;2.90;;;;;;;;;;4958943;28;20039;-81
2022/04/20 08:11:03;;;;;;;4.35;3.05;;;;;;;;;;4959083;28;20093;-82
2022/04/20 08:16:31;;;;;;;4.75;3.50;;;;;;;;;;4958879;28;20043;-82
2022/04/20 08:19:22;;;;;;;7.10;4.40;;;;;;;;;;4975199;28;20035;-82
2022/04/20 08:22:08;;;;;;;6.72;4.57;;;;;;;;;;4965386;28;20574;-82
2022/04/20 08:24:33;;;;;;;7.50;5.18;;;;;;;;;;4957701;28;20073;-81
2022/04/20 08:26:59;;;;;;;7.38;5.22;;;;;;;;;;4958801;28;20055;-81
2022/04/20 08:29:24;;;;;;;7.25;5.30;;;;;;;;;;4975859;28;20034;-82
2022/04/20 08:31:49;;;;;;;6.50;5.10;;;;;;;;;;4976053;28;20030;-82
2022/04/20 08:34:15;;;;;;;7.47;5.45;;;;;;;;;;4974882;28;20369;-81
2022/04/20 08:36:40;;;;;;;6.78;5.10;;;;;;;;;;4958016;28;20042;-82
2022/04/20 08:39:05;;;;;;;7.05;5.38;;;;;;;;;;4975424;28;20035;-81
2022/04/20 08:41:30;;;;;;;7.03;5.20;;;;;;;;;;4975077;28;20038;-82
2022/04/20 08:43:55;;;;;;;7.07;5.25;;;;;;;;;;4975455;28;20043;-81
2022/04/20 08:46:22;;;;;;;6.18;4.78;;;;;;;;;;4975468;28;20459;-81
2022/04/20 08:48:47;;;;;;;7.60;5.65;;;;;;;;;;4975755;28;20030;-82
2022/04/20 08:51:12;;;;;;;6.80;5.32;;;;;;;;;;4957134;28;20038;-82
2022/04/20 08:53:37;;;;;;;6.25;4.78;;;;;;;;;;4975240;28;20042;-82
2022/04/20 08:58:47;;;;;;;6.47;4.93;;;;;;;;;;4976053;28;20041;-82
2022/04/20 09:01:12;;;;;;;6.80;5.05;;;;;;;;;;4975337;28;20043;-81
2022/04/20 09:03:37;;;;;;;6.07;4.65;;;;;;;;;;4976551;28;20037;-86
2022/04/20 09:06:04;;;;;;;6.40;5.05;;;;;;;;;;4991153;23;20051;-86
2022/04/20 09:08:29;;;;;;;7.63;5.30;;;;;;;;;;4976697;28;20049;-87
2022/04/20 09:10:54;;;;;;;6.18;5.13;;;;;;;;;;4973380;28;20125;-89
2022/04/20 09:13:20;;;;;;;7.05;4.90;;;;;;;;;;4974939;28;20066;-88
2022/04/20 09:15:47;;;;;;;6.25;5.07;;;;;;;;;;4961827;28;20440;-85
2022/04/20 09:18:12;;;;;;;6.55;4.82;;;;;;;;;;4955481;28;20070;-88
2022/04/20 09:20:38;;;;;;;7.28;4.90;;;;;;;;;;4954581;29;20034;-88
2022/04/20 09:23:04;;;;;;;7.90;5.00;;;;;;;;;;4970624;28;20042;-86
2022/04/20 09:25:29;;;;;;;5.28;4.57;;;;;;;;;;4953226;29;20514;-85
2022/04/20 09:27:55;;;;;;;7.40;4.38;;;;;;;;;;4954475;29;20031;-87
2022/04/20 09:30:20;;;;;;;5.50;4.53;;;;;;;;;;4955402;28;20452;-87
2022/04/20 09:32:46;;;;;;;6.28;4.38;;;;;;;;;;4957861;28;20059;-88
2022/04/20 09:35:13;;;;;;;5.82;4.25;;;;;;;;;;4976392;28;20041;-86
2022/04/20 09:37:38;;;;;;;6.30;4.10;;;;;;;;;;4963581;28;20102;-87
2022/04/20 09:40:22;;;;;;;;;;;;;;;;;;4973287;29;20188;-85
2022/04/20 09:42:48;;;;;;;5.93;4.13;;;;;;;;;;4978005;28;19995;-87
2022/04/20 09:45:14;;;;;;;6.72;4.10;;;;;;;;;;4961088;28;20058;-86
2022/04/20 09:50:24;;;;;;;5.88;3.90;;;;;;;;;;4962420;28;20027;-86
2022/04/20 09:52:49;;;;;;;5.45;3.88;;;;;;;;;;4975767;28;20511;-86
2022/04/20 09:55:14;;;;;;;5.20;4.07;;;;;;;;;;4985585;28;20043;-86
2022/04/20 09:57:39;;;;;;;5.88;4.10;;;;;;;;;;4961187;29;20093;-85
2022/04/20 10:00:05;;;;;;;4.95;3.90;;;;;;;;;;4964080;28;20087;-83
2022/04/20 10:02:37;;;;;;;7.68;4.00;;;;;;;;;;4964086;28;20503;-85
2022/04/20 10:05:03;;;;;;;5.65;4.15;;;;;;;;;;4962790;28;20042;-86
2022/04/20 10:07:28;;;;;;;6.20;3.67;;;;;;;;;;4960575;28;20492;-87
2022/04/20 10:09:53;;;;;;;5.93;3.75;;;;;;;;;;4974946;28;20403;-84
2022/04/20 10:12:19;;;;;;;5.07;3.20;;;;;;;;;;4973225;28;20043;-86
2022/04/20 10:17:28;;;;;;;5.50;3.40;;;;;;;;;;4964301;28;20037;-86
2022/04/20 10:19:53;;;;;;;4.95;3.40;;;;;;;;;;4979829;28;20023;-84
2022/04/20 10:22:20;;;;;;;5.55;3.40;;;;;;;;;;4979148;28;20043;-84
2022/04/20 10:24:45;;;;;;;5.47;3.30;;;;;;;;;;4978116;28;20623;-87
2022/04/20 10:27:10;;;;;;;4.10;2.88;;;;;;;;;;4979882;28;20074;-86
2022/04/20 10:29:36;;;;;;;3.80;2.95;;;;;;;;;;4962733;29;20035;-84
2022/04/20 10:32:02;;;;;;;6.22;2.80;;;;;;;;;;4964560;28;20039;-86
2022/04/20 10:34:27;;;;;;;4.28;3.17;;;;;;;;;;4962472;28;20031;-84
2022/04/20 10:37:08;;;;;;;4.53;3.50;;;;;;;;;;4963436;29;20050;-87
2022/04/20 10:39:43;;;;;;;6.20;3.20;;;;;;;;;;4981138;28;20031;-86
2022/04/20 10:42:12;;;;;;;5.90;3.60;;;;;;;;;;4962077;28;20039;-85
2022/04/20 10:44:37;;;;;;;5.43;3.53;;;;;;;;;;4973812;28;20058;-85
2022/04/20 10:47:03;;;;;;;4.65;3.00;;;;;;;;;;4957444;29;20031;-84
2022/04/20 10:49:29;;;;;;;3.35;2.58;;;;;;;;;;4958443;28;20039;-85
2022/04/20 10:51:54;;;;;;;5.43;2.70;;;;;;;;;;4958565;28;20066;-85
2022/04/20 10:54:19;;;;;;;4.35;3.13;;;;;;;;;;4966926;28;20059;-86
2022/04/20 10:56:48;;;;;;;5.88;3.30;;;;;;;;;;4960323;29;20046;-86
2022/04/20 10:59:13;;;;;;;4.30;2.72;;;;;;;;;;4959668;29;20031;-86
2022/04/20 11:01:39;;;;;;;3.72;3.03;;;;;;;;;;4960966;28;20484;-87
2022/04/20 11:04:07;;;;;;;3.78;2.90;;;;;;;;;;4958218;28;20157;-85
2022/04/20 11:06:32;;;;;;;4.18;2.90;;;;;;;;;;4971936;28;20123;-85
2022/04/20 11:08:57;;;;;;;4.03;2.80;;;;;;;;;;4957366;28;20074;-87
2022/04/20 11:19:34;;;;;;;;;;;;;;;;;;4971214;28;20031;-83
2022/04/20 11:22:16;;;;;;;5.55;2.85;;;;;;;;;;4967181;28;19965;-86
2022/04/20 11:24:41;;;;;;;4.15;2.85;;;;;;;;;;4959553;28;20046;-86
2022/04/20 11:27:08;;;;;;;4.25;2.72;;;;;;;;;;4959156;28;20038;-85
2022/04/20 11:29:33;;;;;;;4.55;2.70;;;;;;;;;;4957629;29;20062;-84
2022/04/20 11:31:59;;;;;;;5.00;2.85;;;;;;;;;;4972268;28;20035;-87
2022/04/20 11:34:29;;;;;;;4.35;3.00;;;;;;;;;;4972605;28;20499;-85
2022/04/20 11:36:54;;;;;;;4.93;2.80;;;;;;;;;;4956962;29;20046;-85
2022/04/20 11:39:20;;;;;;;4.18;2.92;;;;;;;;;;4958129;29;20035;-84
2022/04/20 11:41:45;;;;;;;5.93;3.50;;;;;;;;;;4956241;29;20496;-84
2022/04/20 11:44:10;;;;;;;4.20;3.33;;;;;;;;;;4957138;28;20035;-85
2022/04/20 11:46:35;;;;;;;5.53;3.13;;;;;;;;;;4956487;29;20057;-84
2022/04/20 11:49:01;;;;;;;4.22;3.22;;;;;;;;;;4957907;28;20039;-85
2022/04/20 11:51:37;;;;;;;5.63;3.40;;;;;;;;;;4969966;28;20031;-83
2022/04/20 11:54:03;;;;;;;4.00;3.05;;;;;;;;;;4945445;29;20059;-86
2022/04/20 11:56:39;;;;;;;5.53;3.00;;;;;;;;;;4937512;29;20507;-85
2022/04/20 11:59:06;;;;;;;4.90;3.50;;;;;;;;;;4938293;29;20042;-85
2022/04/20 12:01:33;;;;;;;4.28;3.30;;;;;;;;;;4936696;29;20050;-86
2022/04/20 12:04:00;;;;;;;5.57;3.00;;;;;;;;;;4937259;29;20036;-84
2022/04/20 12:06:25;;;;;;;5.18;3.28;;;;;;;;;;4936401;29;20038;-87
2022/04/20 12:08:51;;;;;;;5.43;3.53;;;;;;;;;;4936268;29;20031;-85
2022/04/20 12:11:16;;;;;;;4.65;3.50;;;;;;;;;;4937799;29;20042;-86
2022/04/20 12:13:41;;;;;;;5.13;3.85;;;;;;;;;;4936891;29;20035;-86
2022/04/20 12:16:07;;;;;;;6.45;4.20;;;;;;;;;;4934799;29;20058;-86
2022/04/20 12:18:33;;;;;;;6.35;3.60;;;;;;;;;;4935391;29;20046;-86
2022/04/20 12:20:59;;;;;;;5.80;3.83;;;;;;;;;;4936543;29;20043;-86
2022/04/20 12:23:24;;;;;;;4.82;3.42;;;;;;;;;;4936441;29;20106;-85
2022/04/20 12:25:50;;;;;;;6.13;3.67;;;;;;;;;;4935353;29;20042;-87
2022/04/20 12:31:14;;;;;;;5.70;3.95;;;;;;;;;;4934816;29;20058;-85
2022/04/20 12:33:39;;;;;;;5.43;3.58;;;;;;;;;;4938296;29;20036;-85
2022/04/20 12:36:14;;;;;;;6.15;3.70;;;;;;;;;;4936778;29;20408;-86
2022/04/20 12:38:48;;;;;;;6.85;3.65;;;;;;;;;;4936875;29;20031;-86
2022/04/20 12:41:14;;;;;;;5.32;3.92;;;;;;;;;;4938129;29;20050;-87
2022/04/20 12:43:39;;;;;;;5.25;3.80;;;;;;;;;;4935871;29;20047;-85
2022/04/20 12:46:04;;;;;;;5.00;3.75;;;;;;;;;;4935937;29;20119;-84
2022/04/20 12:48:29;;;;;;;7.38;3.88;;;;;;;;;;4936493;29;20046;-84
2022/04/20 12:50:55;;;;;;;5.45;4.07;;;;;;;;;;4941288;29;20043;-84
2022/04/20 12:53:20;;;;;;;5.75;4.07;;;;;;;;;;4939601;29;20044;-86
2022/04/20 13:02:01;;;;;;;5.68;3.80;;;;;;;;;;4935367;29;20046;-86
2022/04/20 13:03:59;;;;;;;4.45;3.45;;;;;;;;;;4937249;29;20043;-84
2022/04/20 13:06:25;;;;;;;7.75;3.53;;;;;;;;;;4935856;29;20392;-85
2022/04/20 13:08:50;;;;;;;5.38;3.60;;;;;;;;;;4935225;29;20513;-85
2022/04/20 13:11:15;;;;;;;4.57;3.30;;;;;;;;;;4936621;29;20039;-84
2022/04/20 13:13:40;;;;;;;5.97;3.90;;;;;;;;;;4936194;29;20044;-86
2022/04/20 13:16:09;;;;;;;4.63;3.40;;;;;;;;;;4934003;29;20039;-86
2022/04/20 13:18:34;;;;;;;5.07;3.65;;;;;;;;;;4934881;29;20078;-85
2022/04/20 13:20:59;;;;;;;4.18;3.08;;;;;;;;;;4935799;29;20031;-85
2022/04/20 13:23:24;;;;;;;5.55;3.20;;;;;;;;;;4934287;29;20115;-85
2022/04/20 13:28:34;;;;;;;5.07;3.42;;;;;;;;;;4934705;29;20522;-87
2022/04/20 13:30:59;;;;;;;4.70;3.60;;;;;;;;;;4936101;29;20122;-85
2022/04/20 13:33:24;;;;;;;3.97;3.30;;;;;;;;;;4934095;29;20035;-85
2022/04/20 13:35:52;;;;;;;4.93;3.28;;;;;;;;;;4933501;29;20043;-85
2022/04/20 13:38:17;;;;;;;5.40;3.40;;;;;;;;;;4950721;28;20031;-86
2022/04/20 13:40:42;;;;;;;5.07;3.20;;;;;;;;;;4970107;28;20506;-85
2022/04/20 13:43:08;;;;;;;4.47;3.20;;;;;;;;;;4970197;28;20039;-84
2022/04/20 13:45:33;;;;;;;5.32;3.20;;;;;;;;;;4974942;28;20027;-85
2022/04/20 13:47:58;;;;;;;6.82;3.03;;;;;;;;;;4975896;28;20065;-83
2022/04/20 13:50:23;;;;;;;3.60;2.90;;;;;;;;;;4998292;28;20138;-88
2022/04/20 13:52:49;;;;;;;4.45;2.83;;;;;;;;;;4973561;28;20039;-85
2022/04/20 13:55:15;;;;;;;3.22;2.60;;;;;;;;;;4959786;28;20380;-85
2022/04/20 13:57:40;;;;;;;4.60;3.25;;;;;;;;;;4936200;29;20703;-85
2022/04/20 14:00:06;;;;;;;4.18;3.10;;;;;;;;;;4951082;29;20737;-86
2022/04/20 14:02:37;;;;;;;7.25;2.88;;;;;;;;;;4936954;29;20415;-86
2022/04/20 14:05:02;;;;;;;3.67;3.05;;;;;;;;;;4951042;29;20096;-86
2022/04/20 14:07:27;;;;;;;5.63;3.22;;;;;;;;;;4952078;29;20055;-86
2022/04/20 14:09:53;;;;;;;6.40;3.00;;;;;;;;;;4936789;29;20039;-86
2022/04/20 14:12:18;;;;;;;3.45;2.67;;;;;;;;;;4967454;28;20081;-86
2022/04/20 14:14:43;;;;;;;4.05;2.90;;;;;;;;;;4954063;28;20031;-85
2022/04/20 14:17:10;;;;;;;5.18;3.47;;;;;;;;;;4965327;28;20692;-85
2022/04/20 14:19:35;;;;;;;7.32;2.92;;;;;;;;;;4967933;28;20030;-85
2022/04/20 14:22:01;;;;;;;4.28;2.80;;;;;;;;;;4963457;28;20045;-84
2022/04/20 14:24:26;;;;;;;5.72;2.90;;;;;;;;;;4972531;28;20061;-84
2022/04/20 14:32:22;;;;;;;;;;;;;;;;;;4992879;28;20031;-83
2022/04/20 14:34:47;;;;;;;3.80;3.00;;;;;;;;;;4975256;28;19925;-84
2022/04/20 14:37:13;;;;;;;3.53;2.80;;;;;;;;;;4977275;28;20038;-85
2022/04/20 14:39:38;;;;;;;8.73;3.55;;;;;;;;;;4992556;28;20113;-85
2022/04/20 14:42:03;;;;;;;4.00;3.22;;;;;;;;;;5000065;28;20542;-87
2022/04/20 14:44:31;;;;;;;4.57;3.22;;;;;;;;;;4981640;28;20038;-84
2022/04/20 14:46:56;;;;;;;6.40;2.92;;;;;;;;;;5009690;28;20034;-86
2022/04/20 14:49:21;;;;;;;5.18;3.10;;;;;;;;;;4983032;28;20041;-86
2022/04/20 14:51:47;;;;;;;5.38;2.90;;;;;;;;;;4981902;28;20488;-86
2022/04/20 14:54:12;;;;;;;4.22;2.78;;;;;;;;;;4943659;29;20105;-86
2022/04/20 14:56:37;;;;;;;5.55;3.22;;;;;;;;;;4941453;29;20036;-85
2022/04/20 14:59:02;;;;;;;7.70;2.90;;;;;;;;;;4941888;29;20032;-87
2022/04/20 15:01:28;;;;;;;3.78;2.92;;;;;;;;;;4956415;29;20039;-87
2022/04/20 15:03:53;;;;;;;7.32;3.30;;;;;;;;;;4941434;29;20086;-86
2022/04/20 15:06:18;;;;;;;4.78;3.13;;;;;;;;;;4942308;29;20036;-87
2022/04/20 15:08:44;;;;;;;4.82;3.15;;;;;;;;;;5006372;23;20054;-80
2022/04/20 15:11:09;;;;;;;4.03;2.97;;;;;;;;;;5019629;28;20033;-81
2022/04/20 15:13:35;;;;;;;7.63;3.70;;;;;;;;;;5027845;28;20037;-81
2022/04/20 15:16:00;;;;;;;6.18;3.20;;;;;;;;;;5023532;28;20030;-81
2022/04/20 15:18:25;;;;;;;4.30;3.13;;;;;;;;;;5020479;28;20784;-81
2022/04/20 15:20:50;;;;;;;4.13;2.70;;;;;;;;;;5031721;28;20037;-82
2022/04/20 15:23:16;;;;;;;5.07;2.88;;;;;;;;;;5018269;28;20039;-80
2022/04/20 15:25:41;;;;;;;3.70;2.65;;;;;;;;;;5016753;28;20026;-81
2022/04/20 15:28:06;;;;;;;4.90;2.83;;;;;;;;;;5034630;28;20034;-82
2022/04/20 15:30:31;;;;;;;3.85;2.70;;;;;;;;;;5034326;28;20116;-81
2022/04/20 15:32:57;;;;;;;3.88;2.97;;;;;;;;;;5034178;28;20044;-80
2022/04/20 15:35:22;;;;;;;4.78;3.05;;;;;;;;;;5033550;28;20040;-81
2022/04/20 15:37:47;;;;;;;4.28;3.03;;;;;;;;;;5034793;28;20490;-80
2022/04/20 15:40:19;;;;;;;6.47;3.10;;;;;;;;;;5035119;28;20135;-81
2022/04/20 15:42:45;;;;;;;4.35;3.00;;;;;;;;;;5005211;28;99527;-80
2022/04/20 15:45:10;;;;;;;4.28;3.10;;;;;;;;;;5018706;28;20115;-81
2022/04/20 15:47:36;;;;;;;5.43;3.10;;;;;;;;;;5017281;28;20034;-81
2022/04/20 15:50:01;;;;;;;5.38;2.90;;;;;;;;;;5017194;28;20045;-81
2022/04/20 15:52:26;;;;;;;4.80;3.00;;;;;;;;;;4975853;28;101468;-82